• Join FlightAware (Why Join?)
  • Login
  • US Flag 
11:04PM EDT


 

Airport Tracker/Info


-or-


 

Live Flight TrackerFlight Track Log ✈ CSH9219 ✈ 15-Feb-2014 ✈ ZSSS / SHA - ZWWW / URC

Flight Track Log - Related Links

Times and Time Zones

All times are in EST time to prevent confusion due to time zone crossing. See the CSH9219 flight status page for this flight to view local times or setup timezone preferences in your user account.

Time Position Orientation Groundspeed Altitude Reporting Facility
EST Latitude Longitude Course Direction KTS MPH feet Rate Location/Type
12:05AM 31.6242 120.6235 305° West  Level Estimated
12:06AM 31.6773 120.5340 305° West  Level Estimated
12:07AM 31.7302 120.4443 305° West  Level Estimated
12:08AM 31.7831 120.3546 305° West  Level Estimated
12:09AM 31.8359 120.2647 305° West  Level Estimated
12:10AM 31.8887 120.1747 305° West  Level Estimated
12:11AM 31.9414 120.0847 305° West  Level Estimated
12:12AM 31.9940 119.9945 305° West  Level Estimated
12:13AM 32.0466 119.9042 305° West  Level Estimated
12:14AM 32.0991 119.8138 304° West  Level Estimated
12:15AM 32.1516 119.7234 304° West  Level Estimated
12:16AM 32.2039 119.6328 304° West  Level Estimated
12:17AM 32.2563 119.5421 304° West  Level Estimated
12:18AM 32.3085 119.4513 304° West  Level Estimated
12:19AM 32.3607 119.3604 304° West  Level Estimated
12:20AM 32.4128 119.2694 304° West  Level Estimated
12:21AM 32.4649 119.1783 304° West  Level Estimated
12:22AM 32.5169 119.0870 304° West  Level Estimated
12:23AM 32.5688 118.9957 304° West  Level Estimated
12:24AM 32.6207 118.9043 304° West  Level Estimated
12:25AM 32.6725 118.8128 304° West  Level Estimated
12:26AM 32.7242 118.7211 304° West  Level Estimated
12:27AM 32.7758 118.6294 304° West  Level Estimated
12:28AM 32.8274 118.5375 304° West  Level Estimated
12:29AM 32.8789 118.4456 304° West  Level Estimated
12:30AM 32.9304 118.3535 304° West  Level Estimated
12:31AM 32.9818 118.2613 304° West  Level Estimated
12:32AM 33.0331 118.1690 304° West  Level Estimated
12:33AM 33.0844 118.0767 304° West  Level Estimated
12:34AM 33.1356 117.9842 303° West  Level Estimated
12:35AM 33.1867 117.8916 303° West  Level Estimated
12:36AM 33.2377 117.7989 303° West  Level Estimated
12:37AM 33.2887 117.7060 303° West  Level Estimated
12:38AM 33.3396 117.6131 303° West  Level Estimated
12:39AM 33.3905 117.5201 303° West  Level Estimated
12:40AM 33.4412 117.4269 303° West  Level Estimated
12:41AM 33.4919 117.3337 303° West  Level Estimated
12:42AM 33.5426 117.2403 303° West  Level Estimated
12:43AM 33.5931 117.1468 303° West  Level Estimated
12:44AM 33.6436 117.0533 303° West  Level Estimated
12:45AM 33.6940 116.9596 303° West  Level Estimated
12:46AM 33.7444 116.8658 303° West  Level Estimated
12:47AM 33.7947 116.7719 303° West  Level Estimated
12:48AM 33.8449 116.6778 303° West  Level Estimated
12:49AM 33.8950 116.5837 303° West  Level Estimated
12:50AM 33.9451 116.4895 303° West  Level Estimated
12:51AM 33.9951 116.3951 303° West  Level Estimated
12:52AM 34.0450 116.3006 303° West  Level Estimated
12:53AM 34.0948 116.2061 302° West  Level Estimated
12:54AM 34.1446 116.1114 302° West  Level Estimated
12:55AM 34.1943 116.0166 302° West  Level Estimated
12:56AM 34.2439 115.9217 302° West  Level Estimated
12:57AM 34.2935 115.8266 302° West  Level Estimated
12:58AM 34.3430 115.7315 302° West  Level Estimated
12:59AM 34.3924 115.6363 302° West  Level Estimated
01:00AM 34.4417 115.5409 302° West  Level Estimated
01:01AM 34.4910 115.4454 302° West  Level Estimated
01:02AM 34.5402 115.3498 302° West  Level Estimated
01:03AM 34.5893 115.2541 302° West  Level Estimated
01:04AM 34.6383 115.1583 302° West  Level Estimated
01:05AM 34.6873 115.0624 302° West  Level Estimated
01:06AM 34.7362 114.9664 302° West  Level Estimated
01:07AM 34.7850 114.8702 302° West  Level Estimated
01:08AM 34.8337 114.7739 302° West  Level Estimated
01:09AM 34.8824 114.6776 302° West  Level Estimated
01:10AM 34.9310 114.5811 302° West  Level Estimated
01:11AM 34.9795 114.4845 302° West  Level Estimated
01:12AM 35.0279 114.3877 301° West  Level Estimated
01:13AM 35.0763 114.2909 301° West  Level Estimated
01:14AM 35.1246 114.1939 301° West  Level Estimated
01:15AM 35.1728 114.0969 301° West  Level Estimated
01:16AM 35.2209 113.9997 301° West  Level Estimated
01:17AM 35.2689 113.9024 301° West  Level Estimated
01:18AM 35.3169 113.8050 301° West  Level Estimated
01:19AM 35.3648 113.7075 301° West  Level Estimated
01:20AM 35.4126 113.6098 301° West  Level Estimated
01:21AM 35.4603 113.5121 301° West  Level Estimated
01:22AM 35.5080 113.4142 301° West  Level Estimated
01:23AM 35.5556 113.3162 301° West  Level Estimated
01:24AM 35.6031 113.2181 301° West  Level Estimated
01:25AM 35.6505 113.1199 301° West  Level Estimated
01:26AM 35.6978 113.0215 301° West  Level Estimated
01:27AM 35.7451 112.9231 301° West  Level Estimated
01:28AM 35.7922 112.8245 301° West  Level Estimated
01:29AM 35.8393 112.7258 301° West  Level Estimated
01:30AM 35.8863 112.6270 300° West  Level Estimated
01:31AM 35.9333 112.5281 300° West  Level Estimated
01:32AM 35.9801 112.4290 300° West  Level Estimated
01:33AM 36.0269 112.3299 300° West  Level Estimated
01:34AM 36.0736 112.2306 300° West  Level Estimated
01:35AM 36.1202 112.1312 300° West  Level Estimated
01:36AM 36.1667 112.0317 300° West  Level Estimated
01:37AM 36.2132 111.9320 300° West  Level Estimated
01:38AM 36.2595 111.8323 300° West  Level Estimated
01:39AM 36.3058 111.7324 300° West  Level Estimated
01:40AM 36.3520 111.6324 300° West  Level Estimated
01:41AM 36.3981 111.5323 300° West  Level Estimated
01:42AM 36.4441 111.4321 300° West  Level Estimated
01:43AM 36.4901 111.3318 300° West  Level Estimated
01:44AM 36.5359 111.2313 300° West  Level Estimated
01:45AM 36.5817 111.1307 300° West  Level Estimated
01:46AM 36.6274 111.0300 300° West  Level Estimated
01:47AM 36.6730 110.9292 299° West  Level Estimated
01:48AM 36.7185 110.8283 299° West  Level Estimated
01:49AM 36.7639 110.7272 299° West  Level Estimated
01:50AM 36.8093 110.6260 299° West  Level Estimated
01:51AM 36.8545 110.5247 299° West  Level Estimated
01:52AM 36.8997 110.4233 299° West  Level Estimated
01:53AM 36.9448 110.3218 299° West  Level Estimated
01:54AM 36.9898 110.2201 299° West  Level Estimated
01:55AM 37.0347 110.1183 299° West  Level Estimated
01:56AM 37.0796 110.0164 299° West  Level Estimated
01:57AM 37.1243 109.9144 299° West  Level Estimated
01:58AM 37.1689 109.8123 299° West  Level Estimated
01:59AM 37.2135 109.7100 299° West  Level Estimated
02:00AM 37.2580 109.6076 299° West  Level Estimated
02:01AM 37.3024 109.5051 299° West  Level Estimated
02:02AM 37.3467 109.4025 299° West  Level Estimated
02:03AM 37.3909 109.2998 298° West  Level Estimated
02:04AM 37.4350 109.1969 298° West  Level Estimated
02:05AM 37.4791 109.0939 298° West  Level Estimated
02:06AM 37.5230 108.9908 298° West  Level Estimated
02:07AM 37.5669 108.8876 298° West  Level Estimated
02:08AM 37.6106 108.7842 298° West  Level Estimated
02:09AM 37.6543 108.6807 298° West  Level Estimated
02:10AM 37.6979 108.5771 298° West  Level Estimated
02:11AM 37.7414 108.4734 298° West  Level Estimated
02:12AM 37.7848 108.3696 298° West  Level Estimated
02:13AM 37.8281 108.2656 298° West  Level Estimated
02:14AM 37.8713 108.1616 298° West  Level Estimated
02:15AM 37.9145 108.0574 298° West  Level Estimated
02:16AM 37.9575 107.9530 298° West  Level Estimated
02:17AM 38.0004 107.8486 298° West  Level Estimated
02:18AM 38.0433 107.7440 298° West  Level Estimated
02:19AM 38.0860 107.6393 297° West  Level Estimated
02:20AM 38.1287 107.5345 297° West  Level Estimated
02:21AM 38.1713 107.4296 297° West  Level Estimated
02:22AM 38.2138 107.3245 297° West  Level Estimated
02:23AM 38.2562 107.2193 297° West  Level Estimated
02:24AM 38.2985 107.1140 297° West  Level Estimated
02:25AM 38.3406 107.0086 297° West  Level Estimated
02:26AM 38.3828 106.9030 297° West  Level Estimated
02:27AM 38.4248 106.7973 297° West  Level Estimated
02:28AM 38.4667 106.6916 297° West  Level Estimated
02:29AM 38.5085 106.5856 297° West  Level Estimated
02:30AM 38.5502 106.4796 297° West  Level Estimated
02:31AM 38.5918 106.3734 297° West  Level Estimated
02:32AM 38.6334 106.2671 297° West  Level Estimated
02:33AM 38.6748 106.1607 297° West  Level Estimated
02:34AM 38.7161 106.0542 296° West  Level Estimated
02:35AM 38.7574 105.9475 296° West  Level Estimated
02:36AM 38.7985 105.8407 296° West  Level Estimated
02:37AM 38.8396 105.7338 296° West  Level Estimated
02:38AM 38.8805 105.6268 296° West  Level Estimated
02:39AM 38.9214 105.5197 296° West  Level Estimated
02:40AM 38.9621 105.4124 296° West  Level Estimated
02:41AM 39.0028 105.3050 296° West  Level Estimated
02:42AM 39.0433 105.1975 296° West  Level Estimated
02:43AM 39.0838 105.0898 296° West  Level Estimated
02:44AM 39.1242 104.9821 296° West  Level Estimated
02:45AM 39.1644 104.8742 296° West  Level Estimated
02:46AM 39.2046 104.7662 296° West  Level Estimated
02:47AM 39.2446 104.6580 296° West  Level Estimated
02:48AM 39.2846 104.5498 296° West  Level Estimated
02:49AM 39.3245 104.4414 295° West  Level Estimated
02:50AM 39.3642 104.3329 295° West  Level Estimated
02:51AM 39.4039 104.2242 295° West  Level Estimated
02:52AM 39.4434 104.1155 295° West  Level Estimated
02:53AM 39.4829 104.0066 295° West  Level Estimated
02:54AM 39.5223 103.8976 295° West  Level Estimated
02:55AM 39.5615 103.7885 295° West  Level Estimated
02:56AM 39.6007 103.6792 295° West  Level Estimated
02:57AM 39.6397 103.5698 295° West  Level Estimated
02:58AM 39.6786 103.4603 295° West  Level Estimated
02:59AM 39.7175 103.3507 295° West  Level Estimated
03:00AM 39.7562 103.2410 295° West  Level Estimated
03:01AM 39.7949 103.1311 295° West  Level Estimated
03:02AM 39.8334 103.0211 295° West  Level Estimated
03:03AM 39.8718 102.9110 294° West  Level Estimated
03:04AM 39.9101 102.8008 294° West  Level Estimated
03:05AM 39.9484 102.6904 294° West  Level Estimated
03:06AM 39.9865 102.5799 294° West  Level Estimated
03:07AM 40.0245 102.4693 294° West  Level Estimated
03:08AM 40.0624 102.3586 294° West  Level Estimated
03:09AM 40.1002 102.2477 294° West  Level Estimated
03:10AM 40.1379 102.1368 294° West  Level Estimated
03:11AM 40.1755 102.0257 294° West  Level Estimated
03:12AM 40.2129 101.9144 294° West  Level Estimated
03:13AM 40.2503 101.8031 294° West  Level Estimated
03:14AM 40.2876 101.6916 294° West  Level Estimated
03:15AM 40.3247 101.5800 294° West  Level Estimated
03:16AM 40.3618 101.4683 294° West  Level Estimated
03:17AM 40.3987 101.3565 293° West  Level Estimated
03:18AM 40.4356 101.2445 293° West  Level Estimated
03:19AM 40.4723 101.1324 293° West  Level Estimated
03:20AM 40.5089 101.0202 293° West  Level Estimated
03:21AM 40.5454 100.9079 293° West  Level Estimated
03:22AM 40.5818 100.7955 293° West  Level Estimated
03:23AM 40.6181 100.6829 293° West  Level Estimated
03:24AM 40.6543 100.5702 293° West  Level Estimated
03:25AM 40.6904 100.4574 293° West  Level Estimated
03:26AM 40.7263 100.3445 293° West  Level Estimated
03:27AM 40.7622 100.2314 293° West  Level Estimated
03:28AM 40.7979 100.1182 293° West  Level Estimated
03:29AM 40.8335 100.0049 293° West  Level Estimated
03:30AM 40.8691 99.8915 293° West  Level Estimated
03:31AM 40.9045 99.7780 292° West  Level Estimated
03:32AM 40.9398 99.6643 292° West  Level Estimated
03:33AM 40.9750 99.5505 292° West  Level Estimated
03:34AM 41.0101 99.4366 292° West  Level Estimated
03:35AM 41.0450 99.3226 292° West  Level Estimated
03:36AM 41.0799 99.2084 292° West  Level Estimated
03:37AM 41.1146 99.0941 292° West  Level Estimated
03:38AM 41.1492 98.9798 292° West  Level Estimated
03:39AM 41.1837 98.8652 292° West  Level Estimated
03:40AM 41.2181 98.7506 292° West  Level Estimated
03:41AM 41.2524 98.6359 292° West  Level Estimated
03:42AM 41.2866 98.5210 292° West  Level Estimated
03:43AM 41.3206 98.4060 292° West  Level Estimated
03:44AM 41.3546 98.2909 291° West  Level Estimated
03:45AM 41.3884 98.1757 291° West  Level Estimated
03:46AM 41.4221 98.0603 291° West  Level Estimated
03:47AM 41.4557 97.9448 291° West  Level Estimated
03:48AM 41.4892 97.8292 291° West  Level Estimated
03:49AM 41.5226 97.7135 291° West  Level Estimated
03:50AM 41.5558 97.5977 291° West  Level Estimated
03:51AM 41.5890 97.4818 291° West  Level Estimated
03:52AM 41.6220 97.3657 291° West  Level Estimated
03:53AM 41.6549 97.2495 291° West  Level Estimated
03:54AM 41.6877 97.1332 291° West  Level Estimated
03:55AM 41.7203 97.0168 291° West  Level Estimated
03:56AM 41.7529 96.9002 291° West  Level Estimated
03:57AM 41.7853 96.7836 290° West  Level Estimated
03:58AM 41.8176 96.6668 290° West  Level Estimated
03:59AM 41.8498 96.5499 290° West  Level Estimated
04:00AM 41.8819 96.4329 290° West  Level Estimated
04:01AM 41.9138 96.3157 290° West  Level Estimated
04:02AM 41.9457 96.1985 290° West  Level Estimated
04:03AM 41.9774 96.0811 290° West  Level Estimated
04:04AM 42.0090 95.9636 290° West  Level Estimated
04:05AM 42.0405 95.8460 290° West  Level Estimated
04:06AM 42.0718 95.7283 290° West  Level Estimated
04:07AM 42.1031 95.6105 290° West  Level Estimated
04:08AM 42.1342 95.4925 290° West  Level Estimated
04:09AM 42.1652 95.3745 290° West  Level Estimated
04:10AM 42.1960 95.2563 289° West  Level Estimated
04:11AM 42.2268 95.1380 289° West  Level Estimated
04:12AM 42.2574 95.0196 289° West  Level Estimated
04:13AM 42.2879 94.9011 289° West  Level Estimated
04:14AM 42.3183 94.7824 289° West  Level Estimated
04:15AM 42.3486 94.6637 289° West  Level Estimated
04:16AM 42.3787 94.5448 289° West  Level Estimated
04:17AM 42.4087 94.4258 289° West  Level Estimated
04:18AM 42.4386 94.3067 289° West  Level Estimated
04:19AM 42.4684 94.1875 289° West  Level Estimated
04:20AM 42.4981 94.0682 289° West  Level Estimated
04:21AM 42.5276 93.9488 289° West  Level Estimated
04:22AM 42.5570 93.8292 288° West  Level Estimated
04:23AM 42.5863 93.7095 288° West  Level Estimated
04:24AM 42.6154 93.5898 288° West  Level Estimated
04:25AM 42.6445 93.4699 288° West  Level Estimated
04:26AM 42.6734 93.3499 288° West  Level Estimated
04:27AM 42.7021 93.2298 288° West  Level Estimated
04:28AM 42.7308 93.1096 288° West  Level Estimated
04:29AM 42.7593 92.9892 288° West  Level Estimated
04:30AM 42.7877 92.8688 288° West  Level Estimated
04:31AM 42.8160 92.7483 288° West  Level Estimated
04:32AM 42.8441 92.6276 288° West  Level Estimated
04:33AM 42.8721 92.5068 288° West  Level Estimated
04:34AM 42.9000 92.3859 288° West  Level Estimated
04:35AM 42.9278 92.2650 287° West  Level Estimated
04:36AM 42.9554 92.1439 287° West  Level Estimated
04:37AM 42.9829 92.0226 287° West  Level Estimated
04:38AM 43.0103 91.9013 287° West  Level Estimated
04:39AM 43.0376 91.7799 287° West  Level Estimated
04:40AM 43.0647 91.6584 287° West  Level Estimated
04:41AM 43.0917 91.5367 287° West  Level Estimated
04:42AM 43.1186 91.4150 287° West  Level Estimated
04:43AM 43.1453 91.2932 287° West  Level Estimated
04:44AM 43.1719 91.1712 287° West  Level Estimated
04:45AM 43.1984 91.0491 287° West  Level Estimated
04:46AM 43.2247 90.9270 287° West  Level Estimated
04:47AM 43.2510 90.8047 286° West  Level Estimated
04:48AM 43.2771 90.6823 286° West  Level Estimated
04:49AM 43.3030 90.5598 286° West  Level Estimated
04:50AM 43.3288 90.4372 286° West  Level Estimated
04:51AM 43.3545 90.3145 286° West  Level Estimated
04:52AM 43.3801 90.1917 286° West  Level Estimated
04:53AM 43.4055 90.0688 286° West  Level Estimated
04:54AM 43.4308 89.9458 286° West  Level Estimated
04:55AM 43.4560 89.8227 286° West  Level Estimated
04:56AM 43.4810 89.6995 286° West  Level Estimated
04:57AM 43.5059 89.5762 286° West  Level Estimated
04:58AM 43.5307 89.4528 286° West  Level Estimated
04:59AM 43.5553 89.3293 285° West  Level Estimated
05:00AM 43.5798 89.2057 285° West  Level Estimated
05:01AM 43.6042 89.0820 285° West  Level Estimated
05:02AM 43.6280 88.9604 285° West  Level Estimated
05:03AM 43.6517 88.8388 285° West  Level Estimated
05:04AM 43.6752 88.7171 285° West  Level Estimated
05:05AM 43.6986 88.5953 285° West  Level Estimated
05:06AM 43.7219 88.4734 285° West  Level Estimated
05:07AM 43.7450 88.3515 285° West  Level Estimated
05:08AM 43.7680 88.2294 285° West  Level Estimated
05:09AM 43.7909 88.1072 285° West  Level Estimated
05:10AM 43.8137 87.9849 285° West  Level Estimated
05:11AM 43.8363 87.8626 284° West  Level Estimated
05:12AM 43.8588 87.7401 284° West  Level Estimated
05:13AM 43.8811 87.6176 284° West  Level Estimated
05:14AM 43.9034 87.4949 284° West  Level Estimated
05:15AM 43.9071 87.4742 284° West  Level Estimated
05:16AM 43.9071 87.4742 144° Southeast  Level Estimated
05:17AM 43.9071 87.4742 144° Southeast  Level Estimated
05:18AM 43.9071 87.4742 144° Southeast  Level Estimated
05:19AM 43.9071 87.4742 144° Southeast  Level Estimated
05:20AM 43.9071 87.4742 144° Southeast  Level Estimated
05:21AM 43.9071 87.4742 144° Southeast  Level Estimated
05:22AM 43.9071 87.4742 144° Southeast  Level Estimated
05:23AM 43.9071 87.4742 144° Southeast  Level Estimated
05:24AM 43.9071 87.4742 144° Southeast  Level Estimated